Time;durP1;ratioP1;P1;durP2;ratioP2;P2;SDS_P1;SDS_P2;PMS_P1;PMS_P2;Temp;Humidity;BMP_temperature;BMP_pressure;BME280_temperature;BME280_humidity;BME280_pressure;Samples;Min_cycle;Max_cycle;Signal;HPM_P1;HPM_P2
2023/10/04 00:00:18;;;;;;;;;2.00;2.00;;;;;18.50;43.07;102432.22;5042285;28;47902;-66
2023/10/04 00:02:46;;;;;;;;;3.50;1.75;;;;;18.51;43.08;102438.41;5060520;28;45337;-66
2023/10/04 00:05:15;;;;;;;;;2.00;0.67;;;;;18.47;43.22;102440.25;5061221;28;45320;-66
2023/10/04 00:07:52;;;;;;;;;3.00;1.00;;;;;18.41;43.24;102434.19;5060947;28;45393;-67
2023/10/04 00:10:19;;;;;;;;;1.00;1.00;;;;;18.42;42.97;102439.47;5060902;28;46279;-66
2023/10/04 00:12:45;;;;;;;;;3.00;2.00;;;;;18.40;43.31;102445.75;5039516;28;45238;-66
2023/10/04 00:15:12;;;;;;;;;4.00;1.50;;;;;18.37;43.46;102444.00;5059352;28;45537;-67
2023/10/04 00:17:42;;;;;;;;;2.00;1.00;;;;;18.34;43.34;102444.09;5060999;28;45313;-66
2023/10/04 00:20:10;;;;;;;;;0.00;0.00;;;;;18.32;43.08;102443.22;5060736;28;46083;-67
2023/10/04 00:22:40;;;;;;;;;1.00;1.00;;;;;18.31;43.25;102446.78;5060806;28;45609;-66
2023/10/04 00:25:11;;;;;;;;;2.33;1.00;;;;;18.31;43.41;102445.03;5059743;28;45278;-66
2023/10/04 00:27:41;;;;;;;;;2.25;2.25;;;;;18.29;43.54;102430.88;5060867;28;45323;-66
2023/10/04 00:30:10;;;;;;;;;3.67;2.00;;;;;18.29;43.40;102436.19;5042783;28;47327;-66
2023/10/04 00:32:36;;;;;;;;;3.00;1.00;;;;;18.28;43.51;102433.56;5060605;28;45382;-66
2023/10/04 00:35:03;;;;;;;;;0.75;0.75;;;;;18.26;43.29;102432.72;5060938;28;45394;-66
2023/10/04 00:37:28;;;;;;;;;2.00;0.25;;;;;18.26;43.47;102432.72;5040253;28;45357;-66
2023/10/04 00:39:54;;;;;;;;;1.00;1.00;;;;;18.23;42.91;102431.00;5060667;28;45312;-66
2023/10/04 00:42:20;;;;;;;;;1.00;1.00;;;;;18.22;43.48;102434.53;5060495;28;45362;-66
2023/10/04 00:44:45;;;;;;;;;4.25;3.00;;;;;18.23;43.56;102438.09;5060955;28;45317;-66
2023/10/04 00:47:10;;;;;;;;;2.25;1.50;;;;;18.15;43.21;102415.19;5060292;28;45604;-66
2023/10/04 00:49:37;;;;;;;;;3.50;1.25;;;;;18.17;43.61;102423.97;5060559;28;47333;-66
2023/10/04 00:52:08;;;;;;;;;3.00;1.50;;;;;18.16;43.31;102430.25;5060257;28;45269;-67
2023/10/04 00:54:34;;;;;;;;;1.75;1.75;;;;;18.16;43.27;102435.56;5054594;28;45263;-67
2023/10/04 00:57:00;;;;;;;;;1.00;1.00;;;;;18.15;43.04;102438.22;5060110;28;45394;-66
2023/10/04 00:59:25;;;;;;;;;2.00;1.00;;;;;18.15;43.34;102441.78;5060162;28;45316;-67
2023/10/04 01:01:51;;;;;;;;;2.50;1.00;;;;;18.10;43.44;102430.34;5059897;28;49835;-66
2023/10/04 01:04:16;;;;;;;;;1.75;1.75;;;;;18.12;43.39;102436.50;5060573;28;45265;-66
2023/10/04 01:06:44;;;;;;;;;2.00;2.00;;;;;18.09;43.43;102433.91;5059884;28;49198;-66
2023/10/04 01:09:10;;;;;;;;;1.00;1.00;;;;;18.08;43.43;102429.50;5060311;28;46359;-66
2023/10/04 01:11:44;;;;;;;;;1.00;1.00;;;;;18.09;43.67;102428.59;5060133;28;45479;-67
2023/10/04 01:14:18;;;;;;;;;2.75;2.75;;;;;18.08;43.89;102433.94;5060407;28;45319;-67
2023/10/04 01:16:44;;;;;;;;;1.75;0.75;;;;;18.04;43.48;102441.09;5060193;28;45224;-67
2023/10/04 01:19:14;;;;;;;;;2.50;1.75;;;;;18.00;43.73;102437.63;5059901;28;45270;-67
2023/10/04 01:21:39;;;;;;;;;3.00;1.00;;;;;18.01;43.43;102434.06;5038450;28;45731;-66
2023/10/04 01:24:08;;;;;;;;;3.75;1.50;;;;;17.98;43.59;102442.09;5051242;28;45326;-67
2023/10/04 01:26:36;;;;;;;;;3.00;2.00;;;;;17.95;43.72;102436.84;5059115;28;45468;-66
2023/10/04 01:29:07;;;;;;;;;2.50;1.50;;;;;17.92;43.69;102442.16;5041864;28;47288;-66
2023/10/04 01:31:33;;;;;;;;;2.00;2.00;;;;;17.90;43.68;102441.31;5060028;28;45233;-66
2023/10/04 01:33:59;;;;;;;;;3.00;1.25;;;;;17.86;43.93;102439.59;5060077;28;45531;-66
2023/10/04 01:36:24;;;;;;;;;3.00;2.00;;;;;17.87;43.93;102452.00;5061050;28;45551;-66
2023/10/04 01:38:51;;;;;;;;;2.00;2.00;;;;;17.84;43.84;102446.75;5063410;28;46203;-66
2023/10/04 01:41:17;;;;;;;;;5.25;2.25;;;;;17.82;43.98;102432.59;5063303;28;45359;-67
2023/10/04 01:43:42;;;;;;;;;1.50;1.50;;;;;17.76;44.07;102432.69;5063580;28;45336;-66
2023/10/04 01:46:08;;;;;;;;;2.25;2.00;;;;;17.73;43.86;102432.78;5063409;28;45255;-67
2023/10/04 01:48:36;;;;;;;;;2.75;1.25;;;;;17.74;43.93;102440.72;5063265;28;46122;-67
2023/10/04 01:51:03;;;;;;;;;3.25;2.00;;;;;17.71;44.00;102432.81;5072661;28;45236;-67
2023/10/04 01:53:29;;;;;;;;;1.50;0.25;;;;;17.69;44.02;102429.28;5057644;28;45273;-66
2023/10/04 01:55:54;;;;;;;;;4.00;1.25;;;;;17.68;44.06;102424.88;5048811;28;45162;-67
2023/10/04 01:58:29;;;;;;;;;2.00;2.00;;;;;17.67;44.06;102416.03;5062894;28;46030;-67
2023/10/04 02:00:58;;;;;;;;;2.00;2.00;;;;;17.63;44.10;102408.97;5063526;28;45393;-67
2023/10/04 02:03:24;;;;;;;;;4.25;2.00;;;;;17.62;44.08;102406.38;5044023;28;45413;-67
2023/10/04 02:05:58;;;;;;;;;2.25;2.25;;;;;17.63;44.08;102405.47;5063079;28;45328;-67
2023/10/04 02:08:24;;;;;;;;;4.25;2.00;;;;;17.62;44.17;102403.69;5062392;28;45363;-67
2023/10/04 02:10:51;;;;;;;;;1.50;1.00;;;;;17.60;44.12;102405.53;5041597;28;45832;-67
2023/10/04 02:13:17;;;;;;;;;6.00;2.50;;;;;17.58;44.26;102405.53;5058492;28;45218;-67
2023/10/04 02:15:48;;;;;;;;;4.00;2.50;;;;;17.53;44.06;102400.31;5062996;28;45248;-67
2023/10/04 02:18:15;;;;;;;;;3.50;2.50;;;;;17.50;44.51;102399.50;5062683;28;46159;-67
2023/10/04 02:20:43;;;;;;;;;5.75;3.00;;;;;17.46;44.39;102401.31;5062671;28;45801;-67
2023/10/04 02:23:09;;;;;;;;;4.75;2.75;;;;;17.45;44.84;102399.56;5062899;28;45238;-67
2023/10/04 02:25:34;;;;;;;;;5.25;2.75;;;;;17.45;44.52;102406.66;5062635;28;45245;-67
2023/10/04 02:28:09;;;;;;;;;4.75;3.25;;;;;17.42;44.55;102401.38;5062743;28;45233;-67
2023/10/04 02:30:34;;;;;;;;;3.00;1.00;;;;;17.42;44.54;102401.38;5062863;28;45178;-67
2023/10/04 02:33:00;;;;;;;;;3.25;2.25;;;;;17.41;44.41;102410.25;5061375;28;45232;-67
2023/10/04 02:35:33;;;;;;;;;2.75;2.75;;;;;17.41;44.53;102411.16;5062726;28;45838;-67
2023/10/04 02:38:00;;;;;;;;;6.00;4.00;;;;;17.34;44.76;102393.53;5062446;28;45396;-67
2023/10/04 02:40:33;;;;;;;;;2.25;2.25;;;;;17.35;44.55;102405.94;5062410;28;45399;-67
2023/10/04 02:42:59;;;;;;;;;3.25;2.25;;;;;17.34;44.63;102388.22;5062528;28;45181;-67
2023/10/04 02:45:26;;;;;;;;;3.00;3.00;;;;;17.31;44.69;102386.50;5062397;28;45221;-67
2023/10/04 02:47:53;;;;;;;;;5.00;3.75;;;;;17.29;44.56;102392.75;5061545;28;46641;-67
2023/10/04 02:50:20;;;;;;;;;3.25;3.00;;;;;17.28;44.75;102398.94;5070319;28;45417;-67
2023/10/04 02:52:46;;;;;;;;;3.75;3.75;;;;;17.26;44.60;102406.06;5062607;28;45503;-68
2023/10/04 02:55:15;;;;;;;;;5.25;4.00;;;;;17.24;44.50;102407.88;5056126;28;45396;-67
2023/10/04 02:57:45;;;;;;;;;4.00;3.00;;;;;17.20;44.69;102399.09;5048272;28;46680;-67
2023/10/04 03:00:16;;;;;;;;;9.75;3.00;;;;;17.14;44.85;102397.38;5062076;28;45435;-67
2023/10/04 03:02:43;;;;;;;;;3.00;3.00;;;;;17.14;44.54;102415.09;5061730;28;45351;-67
2023/10/04 03:05:09;;;;;;;;;2.00;2.00;;;;;17.09;44.96;102407.19;5061829;28;45535;-67
2023/10/04 03:07:34;;;;;;;;;2.50;2.50;;;;;17.10;44.73;102418.72;5062261;28;45410;-67
2023/10/04 03:09:59;;;;;;;;;3.25;3.00;;;;;17.04;44.74;102422.34;5061958;28;45373;-67
2023/10/04 03:12:25;;;;;;;;;2.50;2.50;;;;;17.05;44.75;102417.00;5062382;28;45359;-67
2023/10/04 03:14:50;;;;;;;;;5.00;2.50;;;;;16.98;45.05;102411.78;5043825;28;45277;-67
2023/10/04 03:17:16;;;;;;;;;5.00;3.00;;;;;17.01;45.10;102419.72;5061985;28;45333;-67
2023/10/04 03:19:41;;;;;;;;;3.00;3.00;;;;;16.90;45.16;102411.88;5061978;28;45322;-67
2023/10/04 03:22:08;;;;;;;;;3.75;3.50;;;;;16.94;44.98;102423.38;5062072;28;45285;-67
2023/10/04 03:24:34;;;;;;;;;2.00;2.00;;;;;16.92;45.25;102425.16;5061817;28;45304;-67
2023/10/04 03:26:59;;;;;;;;;4.50;3.00;;;;;16.86;45.20;102419.00;5061672;28;46063;-67
2023/10/04 03:29:24;;;;;;;;;4.00;2.75;;;;;16.84;45.06;102420.81;5061634;28;45210;-67
2023/10/04 03:31:50;;;;;;;;;3.75;3.00;;;;;16.82;45.21;102417.31;5062073;28;45253;-67
2023/10/04 03:34:15;;;;;;;;;7.75;3.25;;;;;16.78;45.42;102414.69;5061671;28;45557;-67
2023/10/04 03:36:46;;;;;;;;;2.00;2.00;;;;;16.75;45.35;102415.63;5059845;28;46325;-67
2023/10/04 03:39:12;;;;;;;;;4.75;3.25;;;;;16.74;45.34;102416.50;5061758;28;45421;-67
2023/10/04 03:41:38;;;;;;;;;3.00;3.00;;;;;16.71;45.51;102417.44;5061832;28;45217;-68
2023/10/04 03:44:05;;;;;;;;;5.00;2.25;;;;;16.69;45.16;102413.03;5061459;28;45218;-66
2023/10/04 03:46:31;;;;;;;;;4.00;2.25;;;;;16.67;45.32;102412.22;5061591;28;46704;-67
2023/10/04 03:48:58;;;;;;;;;4.50;3.25;;;;;16.64;45.53;102398.97;5061424;28;45289;-67
2023/10/04 03:51:24;;;;;;;;;3.00;3.00;;;;;16.62;45.54;102406.09;5070739;28;45309;-67
2023/10/04 03:53:50;;;;;;;;;5.50;3.00;;;;;16.58;45.41;102406.09;5061268;28;45701;-67
2023/10/04 03:56:16;;;;;;;;;3.00;3.00;;;;;16.54;45.61;102398.19;5061125;28;45403;-67
2023/10/04 03:58:42;;;;;;;;;4.50;3.00;;;;;16.54;45.56;102396.44;5061148;28;45214;-67
2023/10/04 04:01:08;;;;;;;;;4.25;2.75;;;;;16.53;45.67;102405.28;5060128;28;45166;-67
2023/10/04 04:03:34;;;;;;;;;3.00;1.50;;;;;16.52;45.66;102406.19;5060685;28;45478;-67
2023/10/04 04:06:00;;;;;;;;;3.75;2.50;;;;;16.50;45.37;102405.34;5060899;28;45451;-66
2023/10/04 04:08:26;;;;;;;;;2.75;2.75;;;;;16.47;45.70;102399.19;5061037;28;45319;-67
2023/10/04 04:10:51;;;;;;;;;3.75;3.75;;;;;16.48;45.64;102404.47;5061049;28;45350;-67
2023/10/04 04:13:18;;;;;;;;;3.50;3.00;;;;;16.47;45.37;102404.50;5060984;28;45461;-66
2023/10/04 04:15:44;;;;;;;;;2.75;2.75;;;;;16.45;45.61;102406.28;5061093;28;45403;-66
2023/10/04 04:18:13;;;;;;;;;5.75;4.50;;;;;16.43;45.80;102406.31;5060762;28;45416;-67
2023/10/04 04:20:41;;;;;;;;;3.00;2.50;;;;;16.40;45.75;102412.53;5061158;28;45213;-66
2023/10/04 04:23:08;;;;;;;;;3.25;2.75;;;;;16.39;45.81;102407.25;5060861;28;45399;-66
2023/10/04 04:25:34;;;;;;;;;2.00;2.00;;;;;16.36;45.69;102410.81;5060746;28;47236;-66
2023/10/04 04:28:01;;;;;;;;;2.25;2.25;;;;;16.37;45.52;102420.50;5060754;28;45254;-66
2023/10/04 04:30:31;;;;;;;;;4.00;4.00;;;;;16.33;45.78;102408.19;5039586;28;45416;-66
2023/10/04 04:32:57;;;;;;;;;5.25;2.75;;;;;16.32;45.60;102413.53;5058801;28;45355;-67
2023/10/04 04:38:14;;;;;;;;;5.67;4.67;;;;;16.22;45.71;102426.88;5060771;28;45453;-67
2023/10/04 04:40:44;;;;;;;;;4.25;2.25;;;;;16.21;46.27;102425.13;5060632;28;45369;-67
2023/10/04 04:45:52;;;;;;;;;3.75;3.25;;;;;16.16;46.04;102428.72;5043988;28;45257;-67
2023/10/04 04:48:24;;;;;;;;;2.75;2.75;;;;;16.12;46.23;102416.41;5060529;28;45363;-67
2023/10/04 04:50:58;;;;;;;;;3.00;3.00;;;;;16.13;46.45;102426.13;5069405;28;45471;-67
2023/10/04 04:53:27;;;;;;;;;4.00;3.25;;;;;16.10;46.24;102424.38;5055447;28;45234;-67
2023/10/04 04:55:53;;;;;;;;;5.00;3.50;;;;;16.09;46.28;102417.31;5059444;28;45413;-67
2023/10/04 04:58:19;;;;;;;;;5.50;3.25;;;;;16.05;46.38;102419.09;5060048;28;45402;-67
2023/10/04 05:00:47;;;;;;;;;5.50;4.50;;;;;16.03;46.26;102415.59;5060510;28;45479;-67
2023/10/04 05:03:13;;;;;;;;;4.75;3.50;;;;;16.00;46.15;102412.97;5059430;28;45233;-66
2023/10/04 05:05:40;;;;;;;;;3.25;3.25;;;;;15.96;46.55;102411.25;5041723;28;46087;-67
2023/10/04 05:08:05;;;;;;;;;9.00;3.75;;;;;15.95;46.27;102409.50;5060306;28;45348;-67
2023/10/04 05:10:38;;;;;;;;;5.75;3.25;;;;;15.89;46.31;102405.13;5059674;28;45325;-67
2023/10/04 05:13:07;;;;;;;;;2.00;1.75;;;;;15.87;46.41;102406.94;5060197;28;45499;-67
2023/10/04 05:15:33;;;;;;;;;6.00;4.75;;;;;15.88;46.87;102413.97;5060090;28;46006;-68
2023/10/04 05:18:00;;;;;;;;;6.50;4.00;;;;;15.85;46.31;102416.66;5055361;28;45703;-71
2023/10/04 05:20:30;;;;;;;;;12.75;9.25;;;;;15.84;46.46;102424.63;5059140;28;45389;-67
2023/10/04 05:22:56;;;;;;;;;4.25;4.25;;;;;15.79;46.45;102424.63;5059270;28;45534;-67
2023/10/04 05:25:22;;;;;;;;;3.00;2.75;;;;;15.75;46.45;102421.13;5058942;28;45376;-62
2023/10/04 05:27:50;;;;;;;;;5.00;4.00;;;;;15.75;46.40;102417.63;5059857;28;45374;-62
2023/10/04 05:30:16;;;;;;;;;3.00;3.00;;;;;15.72;46.63;102418.53;5059775;28;45435;-63
2023/10/04 05:32:43;;;;;;;;;5.00;4.00;;;;;15.68;46.42;102423.84;5059498;28;45311;-69
2023/10/04 05:35:12;;;;;;;;;5.00;3.50;;;;;15.71;46.50;102429.13;5058708;28;45412;-66
2023/10/04 05:37:41;;;;;;;;;3.00;3.00;;;;;15.68;46.80;102432.66;5058695;28;45446;-65
2023/10/04 05:40:16;;;;;;;;;6.75;4.00;;;;;15.64;46.74;102438.03;5041157;28;45407;-65
2023/10/04 05:42:46;;;;;;;;;6.75;5.00;;;;;15.59;46.61;102430.13;5059367;28;45195;-67
2023/10/04 05:45:12;;;;;;;;;5.00;5.00;;;;;15.57;46.93;102435.44;5040592;28;46384;-68
2023/10/04 05:47:38;;;;;;;;;5.00;5.00;;;;;15.54;46.77;102431.91;5058874;28;45405;-66
2023/10/04 05:50:05;;;;;;;;;5.00;5.00;;;;;15.56;46.58;102438.97;5040700;28;45408;-67
2023/10/04 05:52:32;;;;;;;;;9.75;4.00;;;;;15.54;47.10;102432.78;5057546;28;45573;-67
2023/10/04 05:54:58;;;;;;;;;5.75;3.25;;;;;15.52;47.01;102424.00;5054804;28;45230;-65
2023/10/04 05:57:24;;;;;;;;;4.00;4.00;;;;;15.50;47.06;102414.31;5059004;28;45344;-65
2023/10/04 05:59:49;;;;;;;;;6.00;4.00;;;;;15.47;46.50;102411.66;5059376;28;45293;-64
2023/10/04 06:02:14;;;;;;;;;3.00;3.00;;;;;15.47;46.91;102414.31;5059046;28;45335;-63
2023/10/04 06:04:42;;;;;;;;;5.50;4.25;;;;;15.44;46.72;102415.22;5059243;28;45346;-65
2023/10/04 06:07:07;;;;;;;;;3.25;2.75;;;;;15.41;46.87;102423.19;5058632;28;45392;-64
2023/10/04 06:09:33;;;;;;;;;6.00;4.75;;;;;15.37;47.31;102418.78;5059167;28;45368;-66
2023/10/04 06:11:58;;;;;;;;;6.75;5.00;;;;;15.36;46.80;102425.00;5049379;28;45389;-61
2023/10/04 06:14:26;;;;;;;;;4.00;4.00;;;;;15.37;47.30;102430.28;5040670;28;47165;-64
2023/10/04 06:16:52;;;;;;;;;7.75;4.75;;;;;15.27;47.43;102421.53;5055899;28;45322;-64
2023/10/04 06:19:19;;;;;;;;;4.25;3.75;;;;;15.39;46.86;102438.22;5058880;28;45584;-62
2023/10/04 06:21:49;;;;;;;;;5.00;3.25;;;;;15.38;47.23;102441.75;5058840;28;45234;-68
2023/10/04 06:24:15;;;;;;;;;8.25;6.00;;;;;15.37;47.49;102435.59;5060034;28;47372;-67
2023/10/04 06:26:41;;;;;;;;;6.75;4.75;;;;;15.27;46.93;102421.53;5062080;28;45308;-67
2023/10/04 06:29:07;;;;;;;;;5.75;4.50;;;;;15.36;47.50;102438.25;5061888;28;45342;-67
2023/10/04 06:31:32;;;;;;;;;9.25;7.75;;;;;15.37;47.15;102442.63;5060953;28;45400;-67
2023/10/04 06:33:59;;;;;;;;;5.50;5.00;;;;;15.35;46.90;102441.78;5062185;28;45441;-66
2023/10/04 06:36:25;;;;;;;;;6.00;4.75;;;;;15.33;47.28;102438.25;5062195;28;45435;-64
2023/10/04 06:38:52;;;;;;;;;9.50;8.75;;;;;15.33;47.31;102441.78;5062365;28;45355;-66
2023/10/04 06:41:23;;;;;;;;;5.50;5.50;;;;;15.33;47.43;102446.19;5062040;28;45696;-67
2023/10/04 06:43:49;;;;;;;;;5.75;5.75;;;;;15.30;47.84;102448.88;5061566;28;46616;-65
2023/10/04 06:46:14;;;;;;;;;8.25;6.00;;;;;15.31;47.70;102440.94;5060526;28;45285;-66
2023/10/04 06:48:39;;;;;;;;;6.00;4.75;;;;;15.31;47.43;102443.56;5061854;28;48495;-65
2023/10/04 06:51:05;;;;;;;;;8.75;6.50;;;;;15.30;47.53;102452.41;5061635;28;45166;-64
2023/10/04 06:53:30;;;;;;;;;7.50;4.75;;;;;15.28;47.80;102454.16;5058450;28;45258;-64
2023/10/04 06:55:57;;;;;;;;;7.25;5.75;;;;;15.31;47.39;102474.47;5061533;28;49031;-64
2023/10/04 06:58:22;;;;;;;;;8.50;7.50;;;;;15.32;47.71;102461.22;5058688;28;46386;-63
2023/10/04 07:00:47;;;;;;;;;9.00;7.25;;;;;15.35;47.80;102468.28;5061002;28;45518;-65
2023/10/04 07:03:14;;;;;;;;;5.25;4.00;;;;;15.35;47.63;102466.50;5061202;28;45419;-65
2023/10/04 07:05:41;;;;;;;;;8.00;7.25;;;;;15.37;47.50;102474.41;5048698;28;45428;-64
2023/10/04 07:08:12;;;;;;;;;6.50;6.00;;;;;15.38;47.62;102473.53;5061432;28;45348;-64
2023/10/04 07:10:38;;;;;;;;;10.00;7.25;;;;;15.39;47.57;102470.00;5049436;28;45473;-64
2023/10/04 07:13:06;;;;;;;;;13.25;9.25;;;;;15.40;48.02;102477.06;5061318;28;45543;-65
2023/10/04 07:15:35;;;;;;;;;9.75;8.50;;;;;15.40;47.80;102488.53;5057589;28;45459;-65
2023/10/04 07:18:02;;;;;;;;;10.50;8.75;;;;;15.40;47.71;102485.00;5055596;28;45344;-64
2023/10/04 07:20:27;;;;;;;;;10.00;9.75;;;;;15.41;47.86;102485.00;5061020;28;45345;-64
2023/10/04 07:23:03;;;;;;;;;7.00;4.75;;;;;15.42;48.25;102485.84;5061346;28;46296;-64
2023/10/04 07:25:31;;;;;;;;;11.00;7.50;;;;;15.40;47.88;102477.06;5060258;28;45395;-65
2023/10/04 07:28:01;;;;;;;;;10.50;9.25;;;;;15.44;47.90;102478.78;5061505;28;45364;-64
2023/10/04 07:30:27;;;;;;;;;10.75;9.50;;;;;15.42;48.21;102481.47;5061042;28;45498;-65
2023/10/04 07:32:52;;;;;;;;;8.50;6.00;;;;;15.45;48.41;102485.84;5042628;28;46754;-63
2023/10/04 07:35:24;;;;;;;;;11.00;11.00;;;;;15.49;48.14;102486.72;5042471;28;45431;-64
2023/10/04 07:37:50;;;;;;;;;8.75;7.50;;;;;15.51;48.64;102490.22;5061270;28;45266;-63
2023/10/04 07:40:17;;;;;;;;;10.75;10.75;;;;;15.54;48.29;102483.13;5060533;28;45293;-64
2023/10/04 07:42:47;;;;;;;;;14.00;9.75;;;;;15.55;48.53;102487.53;5060580;28;45394;-63
2023/10/04 07:45:13;;;;;;;;;10.25;8.75;;;;;15.57;48.73;102500.78;5060755;28;45416;-63
2023/10/04 07:47:42;;;;;;;;;14.25;11.50;;;;;15.64;48.28;102506.94;5043010;28;45297;-63
2023/10/04 07:50:10;;;;;;;;;11.50;10.25;;;;;15.67;48.31;102507.78;5053568;28;45273;-62
2023/10/04 07:52:40;;;;;;;;;10.75;10.00;;;;;15.72;48.72;102513.94;5060400;28;45375;-63
2023/10/04 07:55:14;;;;;;;;;8.25;8.00;;;;;15.78;48.48;102515.63;5056607;28;45499;-62
2023/10/04 07:57:42;;;;;;;;;7.50;5.75;;;;;15.86;48.62;102524.47;5060862;28;45455;-62
2023/10/04 08:00:13;;;;;;;;;12.25;10.25;;;;;15.93;48.61;102538.53;5060476;28;45511;-63
2023/10/04 08:02:45;;;;;;;;;12.25;12.25;;;;;15.96;48.40;102525.28;5060192;28;46553;-62
2023/10/04 08:05:19;;;;;;;;;16.25;15.25;;;;;16.05;48.69;102524.28;5042226;28;45295;-63
2023/10/04 08:07:46;;;;;;;;;14.75;12.00;;;;;16.12;48.75;102533.94;5060813;28;45442;-62
2023/10/04 08:10:13;;;;;;;;;8.00;8.00;;;;;16.15;48.60;102530.38;5060678;28;45229;-62
2023/10/04 08:12:39;;;;;;;;;14.25;13.00;;;;;16.20;48.46;102534.78;5060394;28;45352;-63
2023/10/04 08:15:07;;;;;;;;;8.50;7.00;;;;;16.29;48.71;102538.22;5060565;28;45363;-62
2023/10/04 08:17:33;;;;;;;;;11.50;6.25;;;;;16.35;49.05;102533.75;5056194;28;45309;-62
2023/10/04 08:19:58;;;;;;;;;10.75;7.75;;;;;16.41;48.56;102538.09;5059035;28;45428;-62
2023/10/04 08:22:24;;;;;;;;;13.00;8.50;;;;;16.47;48.74;102535.38;5042162;28;47950;-63
2023/10/04 08:24:49;;;;;;;;;9.50;8.50;;;;;16.55;48.90;102540.59;5059876;28;45509;-62
2023/10/04 08:27:16;;;;;;;;;13.25;8.75;;;;;16.61;48.63;102531.72;5060337;28;45398;-61
2023/10/04 08:29:43;;;;;;;;;12.25;9.75;;;;;16.69;48.89;102528.06;5060314;28;45174;-61
2023/10/04 08:32:08;;;;;;;;;10.50;9.25;;;;;16.76;48.92;102531.53;5059985;28;46413;-62
2023/10/04 08:34:34;;;;;;;;;13.50;10.75;;;;;16.81;49.08;102527.03;5059980;28;45353;-62
2023/10/04 08:36:59;;;;;;;;;11.50;10.75;;;;;16.89;48.81;102525.19;5059593;28;49331;-62
2023/10/04 08:39:24;;;;;;;;;7.50;6.25;;;;;16.96;48.79;102517.19;5059885;28;53392;-62
2023/10/04 08:41:50;;;;;;;;;11.25;10.50;;;;;17.04;48.87;102520.59;5060037;28;46083;-63
2023/10/04 08:44:15;;;;;;;;;13.50;9.25;;;;;17.11;48.76;102522.28;5042032;28;45366;-62
2023/10/04 08:46:45;;;;;;;;;11.50;10.25;;;;;17.15;48.82;102513.34;5059128;28;45274;-63
2023/10/04 08:49:14;;;;;;;;;9.25;9.25;;;;;17.25;48.88;102516.78;5060390;28;45336;-63
2023/10/04 08:51:53;;;;;;;;;8.00;7.00;;;;;17.30;48.94;102511.41;5059415;28;45237;-62
2023/10/04 08:54:23;;;;;;;;;10.50;8.25;;;;;17.34;48.76;102505.13;5055973;28;45499;-63
2023/10/04 08:56:55;;;;;;;;;10.50;8.25;;;;;17.48;48.96;102523.53;5059667;28;45512;-62
2023/10/04 08:59:24;;;;;;;;;9.25;8.25;;;;;17.56;49.15;102529.63;5059801;28;45766;-62
2023/10/04 09:01:50;;;;;;;;;11.50;10.25;;;;;17.62;48.93;102524.22;5059540;28;45427;-62
2023/10/04 09:04:18;;;;;;;;;11.75;9.75;;;;;17.70;48.84;102522.31;5041784;28;46186;-62
2023/10/04 09:06:44;;;;;;;;;10.25;8.00;;;;;17.77;49.03;102531.03;5041573;28;45508;-62
2023/10/04 09:09:14;;;;;;;;;8.75;7.25;;;;;17.85;48.98;102533.59;5059186;28;45343;-62
2023/10/04 09:11:40;;;;;;;;;11.00;7.00;;;;;17.95;48.77;102543.22;5037848;28;45430;-62
2023/10/04 09:14:06;;;;;;;;;13.25;8.00;;;;;18.01;49.02;102540.47;5057642;28;45822;-63
2023/10/04 09:16:31;;;;;;;;;12.50;8.25;;;;;18.08;48.87;102537.69;5059301;28;45862;-62
2023/10/04 09:19:14;;;;;;;;;7.00;6.50;;;;;18.19;48.52;102531.25;5053684;28;45697;-62
2023/10/04 09:21:41;;;;;;;;;7.75;7.50;;;;;18.24;48.65;102525.88;5059063;28;46182;-62
2023/10/04 09:24:14;;;;;;;;;8.50;6.75;;;;;18.35;48.89;102528.31;5059573;28;45442;-62
2023/10/04 09:27:01;;;;;;;;;9.75;9.75;;;;;18.44;48.74;102529.94;5058908;28;45400;-62
2023/10/04 09:29:33;;;;;;;;;9.50;9.50;;;;;18.51;48.57;102524.47;5056345;28;45674;-62
2023/10/04 09:31:59;;;;;;;;;10.00;8.50;;;;;18.56;49.10;102526.16;5041058;28;47144;-62
2023/10/04 09:34:25;;;;;;;;;9.25;6.25;;;;;18.64;48.70;102530.44;5059124;28;45393;-62
2023/10/04 09:36:52;;;;;;;;;9.00;6.25;;;;;18.72;48.72;102534.75;5059286;28;45257;-63
2023/10/04 09:39:23;;;;;;;;;9.00;7.00;;;;;18.80;48.47;102543.44;5040669;28;45496;-62
2023/10/04 09:41:50;;;;;;;;;7.25;5.50;;;;;18.88;48.33;102532.63;5059122;28;46360;-61
2023/10/04 09:44:25;;;;;;;;;10.50;6.75;;;;;18.94;48.95;102521.88;5059227;28;45278;-62
2023/10/04 09:46:56;;;;;;;;;6.75;6.00;;;;;19.02;48.51;102522.59;5059025;28;45256;-62
2023/10/04 09:49:31;;;;;;;;;6.50;6.25;;;;;19.02;48.63;102506.63;5059147;28;45407;-62
2023/10/04 09:51:59;;;;;;;;;10.75;7.25;;;;;19.16;48.27;102511.63;5054911;28;45633;-62
2023/10/04 09:54:27;;;;;;;;;10.50;7.50;;;;;19.21;48.73;102501.75;5040974;28;45636;-64
2023/10/04 09:56:53;;;;;;;;;10.00;7.50;;;;;19.28;48.38;102498.03;5059490;28;45376;-62
2023/10/04 09:59:21;;;;;;;;;6.75;6.50;;;;;19.36;48.48;102511.19;5061689;28;45411;-63
2023/10/04 10:02:09;;;;;;;;;8.50;7.50;;;;;19.43;48.59;102510.13;5060773;28;46349;-62
2023/10/04 10:04:43;;;;;;;;;6.25;5.25;;;;;19.48;48.63;102502.00;5060769;28;45309;-62
2023/10/04 10:07:18;;;;;;;;;12.00;7.00;;;;;19.59;48.02;102507.09;5061810;28;45399;-62
2023/10/04 10:09:57;;;;;;;;;9.00;7.75;;;;;19.65;48.08;102499.81;5055812;28;45595;-62
2023/10/04 10:12:23;;;;;;;;;9.00;6.25;;;;;19.72;48.57;102499.66;5062550;28;46262;-62
2023/10/04 10:14:49;;;;;;;;;7.75;5.50;;;;;19.79;48.39;102510.13;5062683;28;45420;-62
2023/10/04 10:17:19;;;;;;;;;6.00;4.50;;;;;19.86;47.85;102502.91;5060813;28;45352;-62
2023/10/04 10:19:46;;;;;;;;;5.25;4.50;;;;;19.89;47.99;102494.81;5060989;28;45590;-62
2023/10/04 10:22:15;;;;;;;;;4.75;2.75;;;;;19.99;48.11;102498.13;5059454;28;46312;-62
2023/10/04 10:24:44;;;;;;;;;4.25;4.25;;;;;20.00;48.09;102493.66;5043638;28;45571;-63
2023/10/04 10:27:13;;;;;;;;;5.00;3.75;;;;;20.12;47.74;102499.56;5061578;28;45302;-62
2023/10/04 10:29:40;;;;;;;;;3.25;2.25;;;;;20.18;47.91;102497.66;5062542;28;45371;-62
2023/10/04 10:32:23;;;;;;;;;7.00;4.50;;;;;20.22;47.63;102483.28;5062064;28;45423;-66
2023/10/04 10:34:51;;;;;;;;;6.25;3.50;;;;;20.29;47.59;102482.22;5062157;28;45380;-63
2023/10/04 10:37:23;;;;;;;;;5.75;2.25;;;;;20.37;47.25;102490.88;5062506;28;45254;-63
2023/10/04 10:39:51;;;;;;;;;15.00;14.00;;;;;20.39;47.76;102478.38;5061734;28;45395;-62
2023/10/04 10:42:18;;;;;;;;;3.00;2.00;;;;;20.47;47.23;102483.50;5062132;28;45423;-63
2023/10/04 10:44:44;;;;;;;;;4.00;2.50;;;;;20.52;47.45;102483.38;5061730;28;45430;-63
2023/10/04 10:47:17;;;;;;;;;3.75;3.50;;;;;20.62;47.61;102492.84;5062003;28;45534;-67
2023/10/04 10:49:44;;;;;;;;;7.00;5.00;;;;;20.69;47.40;102498.88;5062044;28;45515;-63
2023/10/04 10:52:20;;;;;;;;;4.00;3.75;;;;;20.71;47.11;102491.75;5061650;28;47224;-63
2023/10/04 10:54:45;;;;;;;;;6.00;4.00;;;;;20.80;46.84;102488.78;5048349;28;45207;-63
2023/10/04 10:57:12;;;;;;;;;3.25;3.25;;;;;20.86;47.40;102474.41;5061660;28;45432;-64
2023/10/04 10:59:37;;;;;;;;;4.75;3.25;;;;;20.91;47.00;102477.78;5061652;28;45336;-64
2023/10/04 11:02:04;;;;;;;;;4.25;3.50;;;;;20.98;46.81;102479.38;5057791;28;45333;-64
2023/10/04 11:04:30;;;;;;;;;4.00;4.00;;;;;21.06;46.91;102476.47;5059878;28;45436;-63
2023/10/04 11:06:55;;;;;;;;;4.75;3.00;;;;;21.14;47.06;102478.88;5061352;28;45427;-64
2023/10/04 11:09:21;;;;;;;;;3.75;2.50;;;;;21.20;46.94;102471.53;5042848;28;45353;-65
2023/10/04 11:11:49;;;;;;;;;7.75;4.00;;;;;21.26;46.51;102479.38;5061760;28;46267;-66
2023/10/04 11:14:18;;;;;;;;;2.00;2.00;;;;;21.29;46.77;102467.69;5061490;28;45248;-67
2023/10/04 11:16:44;;;;;;;;;2.75;1.00;;;;;21.38;46.31;102466.53;5061586;28;45401;-66
2023/10/04 11:19:10;;;;;;;;;5.00;3.75;;;;;21.45;46.53;102459.19;5047550;28;45494;-65
2023/10/04 11:21:35;;;;;;;;;5.00;2.00;;;;;21.57;46.48;102459.69;5061379;28;45421;-64
2023/10/04 11:24:03;;;;;;;;;3.50;3.25;;;;;21.68;46.55;102459.31;5061541;28;45367;-64
2023/10/04 11:26:30;;;;;;;;;3.50;2.00;;;;;21.78;46.21;102448.31;5042487;28;45202;-65
2023/10/04 11:28:57;;;;;;;;;4.67;2.00;;;;;21.86;46.10;102454.25;5061197;28;45217;-66
2023/10/04 11:31:23;;;;;;;;;3.67;1.00;;;;;22.01;45.90;102459.09;5061251;28;45446;-65